createdAt,value
2018-05-10T00:01:20.964Z,100350.51
2018-05-10T00:06:11.992Z,100360.13
2018-05-10T00:11:03.121Z,100365.63
2018-05-10T00:15:54.139Z,100368.81
2018-05-10T00:20:45.137Z,100362.50
2018-05-10T00:25:36.186Z,100366.48
2018-05-10T00:30:27.178Z,100360.33
2018-05-10T00:35:18.240Z,100359.25
2018-05-10T00:40:09.261Z,100350.36
2018-05-10T00:45:00.292Z,100346.94
2018-05-10T00:49:51.386Z,100341.14
2018-05-10T00:54:53.682Z,100344.44
2018-05-10T00:59:44.684Z,100340.23
2018-05-10T01:04:35.710Z,100349.44
2018-05-10T01:09:26.718Z,100345.19
2018-05-10T01:14:18.631Z,100330.45
2018-05-10T01:19:09.667Z,100328.42
2018-05-10T01:24:00.680Z,100327.57
2018-05-10T01:28:51.704Z,100325.44
2018-05-10T01:33:42.755Z,100325.17
2018-05-10T01:38:34.528Z,100328.58
2018-05-10T01:43:25.564Z,100337.88
2018-05-10T01:48:16.603Z,100335.22
2018-05-10T01:53:07.668Z,100335.06
2018-05-10T01:57:59.431Z,100327.87
2018-05-10T02:02:50.720Z,100323.21
2018-05-10T02:07:42.496Z,100328.64
2018-05-10T02:12:33.591Z,100335.40
2018-05-10T02:17:25.355Z,100345.19
2018-05-10T02:22:16.456Z,100346.24
2018-05-10T02:27:07.462Z,100341.67
2018-05-10T02:31:58.525Z,100343.70
2018-05-10T02:36:49.548Z,100339.76
2018-05-10T02:41:40.570Z,100344.97
2018-05-10T02:46:31.612Z,100345.27
2018-05-10T02:51:22.627Z,100345.70
2018-05-10T02:56:13.678Z,100347.66
2018-05-10T03:01:04.709Z,100349.44
2018-05-10T03:05:55.772Z,100343.05
2018-05-10T03:10:47.533Z,100341.42
2018-05-10T03:15:38.629Z,100336.36
2018-05-10T03:20:30.401Z,100339.31
2018-05-10T03:25:21.476Z,100333.38
2018-05-10T03:30:12.483Z,100336.36
2018-05-10T03:35:03.551Z,100324.92
2018-05-10T03:39:55.305Z,100329.64
2018-05-10T03:44:46.370Z,100326.80
2018-05-10T03:49:37.400Z,100326.53
2018-05-10T03:54:28.524Z,100326.02
2018-05-10T03:59:19.528Z,100327.64
2018-05-10T04:04:31.977Z,100323.39
2018-05-10T04:09:41.762Z,100314.87
2018-05-10T04:14:33.538Z,100309.22
2018-05-10T04:19:24.559Z,100311.98
2018-05-10T04:24:16.829Z,100313.91
2018-05-10T04:29:07.859Z,100320.07
2018-05-10T04:33:58.982Z,100323.72
2018-05-10T04:38:50.009Z,100319.51
2018-05-10T04:43:41.036Z,100323.31
2018-05-10T04:48:32.054Z,100323.53
2018-05-10T04:53:24.246Z,100329.28
2018-05-10T04:58:16.049Z,100328.95
2018-05-10T05:03:07.064Z,100337.93
2018-05-10T05:07:58.083Z,100340.82
2018-05-10T05:12:49.121Z,100343.66
2018-05-10T05:17:40.181Z,100345.29
2018-05-10T05:22:31.236Z,100351.82
2018-05-10T05:27:22.272Z,100350.01
2018-05-10T05:32:13.294Z,100355.37
2018-05-10T05:37:04.329Z,100354.48
2018-05-10T05:41:55.390Z,100354.73
2018-05-10T05:46:47.160Z,100357.11
2018-05-10T05:51:38.353Z,100367.30
2018-05-10T05:56:30.116Z,100365.91
2018-05-10T06:01:21.139Z,100368.49
2018-05-10T06:06:12.141Z,100371.44
2018-05-10T06:11:03.985Z,100379.13
2018-05-10T06:15:55.817Z,100380.60
2018-05-10T06:20:46.768Z,100378.58
2018-05-10T06:25:37.794Z,100388.56
2018-05-10T06:30:28.866Z,100389.83
2018-05-10T06:35:19.876Z,100388.41
2018-05-10T06:40:10.913Z,100391.22
2018-05-10T06:45:01.909Z,100392.28
2018-05-10T06:49:52.929Z,100382.64
2018-05-10T06:54:44.023Z,100392.55
2018-05-10T06:59:35.055Z,100391.58
2018-05-10T07:04:26.084Z,100391.62
2018-05-10T07:09:17.130Z,100399.33
2018-05-10T07:14:08.205Z,100399.57
2018-05-10T07:18:59.956Z,100410.11
2018-05-10T07:23:50.968Z,100411.84
2018-05-10T07:28:42.730Z,100416.16
2018-05-10T07:33:33.784Z,100413.37
2018-05-10T07:38:24.836Z,100411.13
2018-05-10T07:43:15.870Z,100406.08
2018-05-10T07:48:07.644Z,100406.78
2018-05-10T07:52:58.748Z,100405.01
2018-05-10T07:57:49.781Z,100403.93
2018-05-10T08:02:40.823Z,100398.47
2018-05-10T08:07:31.921Z,100414.81
2018-05-10T08:12:22.929Z,100409.17
2018-05-10T08:17:14.790Z,100404.30
2018-05-10T08:22:05.813Z,100404.80
2018-05-10T08:26:56.919Z,100405.79
2018-05-10T08:31:48.708Z,100404.83
2018-05-10T08:36:39.731Z,100397.66
2018-05-10T08:41:30.757Z,100387.50
2018-05-10T08:46:21.793Z,100391.62
2018-05-10T08:51:12.824Z,100394.55
2018-05-10T08:56:03.912Z,100393.45
2018-05-10T09:00:54.946Z,100389.55
2018-05-10T09:05:45.968Z,100399.11
2018-05-10T09:10:36.984Z,100399.29
2018-05-10T09:15:28.019Z,100389.66
2018-05-10T09:20:19.139Z,100382.74
2018-05-10T09:25:10.854Z,100379.30
2018-05-10T09:30:01.924Z,100377.20
2018-05-10T09:34:52.945Z,100394.92
2018-05-10T09:39:43.999Z,100387.67
2018-05-10T09:44:35.769Z,100386.44
2018-05-10T09:49:26.779Z,100386.61
2018-05-10T09:54:17.792Z,100388.03
2018-05-10T09:59:09.552Z,100395.73
2018-05-10T10:04:00.575Z,100387.31
2018-05-10T10:08:51.633Z,100379.86
2018-05-10T10:13:42.660Z,100386.19
2018-05-10T10:18:33.704Z,100374.40
2018-05-10T10:23:24.709Z,100387.61
2018-05-10T10:28:15.730Z,100404.32
2018-05-10T10:33:06.775Z,100391.34
2018-05-10T10:37:57.804Z,100385.08
2018-05-10T10:42:49.597Z,100382.89
2018-05-10T10:47:40.648Z,100386.36
2018-05-10T10:52:31.729Z,100400.92
2018-05-10T10:57:22.755Z,100397.36
2018-05-10T11:02:13.882Z,100397.23
2018-05-10T11:07:04.919Z,100393.80
2018-05-10T11:11:55.952Z,100399.98
2018-05-10T11:16:46.988Z,100383.95
2018-05-10T11:21:38.032Z,100391.10
2018-05-10T11:26:29.797Z,100380.13
2018-05-10T11:31:20.843Z,100387.91
2018-05-10T11:36:11.945Z,100384.54
2018-05-10T11:41:02.942Z,100381.60
2018-05-10T11:45:54.707Z,100384.69
2018-05-10T11:50:45.728Z,100393.02
2018-05-10T11:55:36.794Z,100396.47
2018-05-10T12:00:27.824Z,100398.02
2018-05-10T12:05:18.888Z,100384.95
2018-05-10T12:10:10.652Z,100379.91
2018-05-10T12:15:01.684Z,100398.34
2018-05-10T12:19:52.713Z,100384.09
2018-05-10T12:24:43.760Z,100373.47
2018-05-10T12:29:34.772Z,100370.47
2018-05-10T12:34:25.852Z,100376.03
2018-05-10T12:39:16.913Z,100376.17
2018-05-10T12:44:07.951Z,100374.92
2018-05-10T12:48:59.008Z,100375.92
2018-05-10T12:53:50.773Z,100365.55
2018-05-10T12:58:41.803Z,100371.92
2018-05-10T13:03:32.843Z,100373.69
2018-05-10T13:08:23.938Z,100368.58
2018-05-10T13:13:14.977Z,100362.91
2018-05-10T13:18:05.996Z,100365.95
2018-05-10T13:22:57.036Z,100368.17
2018-05-10T13:27:48.080Z,100358.26
2018-05-10T13:32:39.159Z,100349.69
2018-05-10T13:37:30.207Z,100351.88
2018-05-10T13:42:21.236Z,100342.26
2018-05-10T13:47:12.393Z,100351.23
2018-05-10T13:52:04.062Z,100352.91
2018-05-10T13:56:55.076Z,100348.73
2018-05-10T14:01:46.101Z,100350.14
2018-05-10T14:06:37.176Z,100348.60
2018-05-10T14:11:28.287Z,100351.66
2018-05-10T14:16:19.375Z,100364.55
2018-05-10T14:21:10.394Z,100365.64
2018-05-10T14:26:01.430Z,100357.37
2018-05-10T14:30:52.505Z,100364.00
2018-05-10T14:35:43.546Z,100358.22
2018-05-10T14:40:35.313Z,100367.62
2018-05-10T14:45:26.384Z,100371.41
2018-05-10T14:50:17.426Z,100367.20
2018-05-10T14:55:09.209Z,100358.13
2018-05-10T15:00:00.281Z,100364.23
2018-05-10T15:04:51.296Z,100374.72
2018-05-10T15:09:42.361Z,100381.25
2018-05-10T15:14:33.379Z,100381.88
2018-05-10T15:19:24.430Z,100376.92
2018-05-10T15:24:15.475Z,100375.52
2018-05-10T15:29:06.631Z,100369.16
2018-05-10T15:33:57.654Z,100362.37
2018-05-10T15:38:48.680Z,100369.30
2018-05-10T15:43:40.445Z,100374.44
2018-05-10T15:48:31.478Z,100377.01
2018-05-10T15:53:22.517Z,100383.11
2018-05-10T15:58:13.545Z,100394.06
2018-05-10T16:03:04.729Z,100403.58
2018-05-10T16:07:56.492Z,100415.52
2018-05-10T16:12:47.519Z,100421.26
2018-05-10T16:17:39.361Z,100428.31
2018-05-10T16:22:30.382Z,100442.05
2018-05-10T16:27:21.406Z,100444.70
2018-05-10T16:32:12.490Z,100444.39
2018-05-10T16:37:04.289Z,100474.33
2018-05-10T16:41:55.334Z,100469.91
2018-05-10T16:46:46.381Z,100480.58
2018-05-10T16:51:38.221Z,100473.23
2018-05-10T16:56:29.984Z,100465.86
2018-05-10T17:01:21.029Z,100468.69
2018-05-10T17:06:12.055Z,100473.63
2018-05-10T17:11:03.180Z,100476.95
2018-05-10T17:15:54.277Z,100477.41
2018-05-10T17:20:45.292Z,100477.47
2018-05-10T17:25:37.032Z,100494.48
2018-05-10T17:30:28.857Z,100501.91
2018-05-10T17:35:20.653Z,100517.20
2018-05-10T17:40:11.735Z,100520.62
2018-05-10T17:45:02.730Z,100543.63
2018-05-10T17:49:53.787Z,100565.02
2018-05-10T17:54:44.816Z,100571.51
2018-05-10T17:59:35.848Z,100581.91
2018-05-10T18:04:26.876Z,100591.80
2018-05-10T18:09:19.020Z,100606.80
2018-05-10T18:14:10.071Z,100649.47
2018-05-10T18:19:01.153Z,100712.34
2018-05-10T18:23:52.173Z,100758.13
2018-05-10T18:28:43.244Z,100780.13
2018-05-10T18:33:34.317Z,100800.80
2018-05-10T18:38:26.095Z,100812.23
2018-05-10T18:43:17.123Z,100819.56
2018-05-10T18:48:08.178Z,100829.03
2018-05-10T18:52:59.220Z,100824.61
2018-05-10T18:57:52.325Z,100824.91
2018-05-10T19:02:43.452Z,100817.08
2018-05-10T19:07:34.500Z,100801.95
2018-05-10T19:12:26.178Z,100789.59
2018-05-10T19:17:18.576Z,100792.19
2018-05-10T19:22:09.827Z,100820.83
2018-05-10T19:27:01.653Z,100833.14
2018-05-10T19:31:53.068Z,100852.66
2018-05-10T19:36:44.128Z,100868.13
2018-05-10T19:41:35.734Z,100875.20
2018-05-10T19:46:28.120Z,100866.45
2018-05-10T19:51:19.239Z,100859.24
2018-05-10T19:56:10.269Z,100833.28
2018-05-10T20:01:01.284Z,100822.33
2018-05-10T20:05:52.329Z,100832.06
2018-05-10T20:10:43.368Z,100858.38
2018-05-10T20:15:35.153Z,100876.18
2018-05-10T20:20:26.204Z,100893.74
2018-05-10T20:25:18.284Z,100897.96
2018-05-10T20:30:10.072Z,100910.17
2018-05-10T20:35:01.890Z,100920.86
2018-05-10T20:39:52.911Z,100922.50
2018-05-10T20:44:44.033Z,100931.43
2018-05-10T20:49:35.045Z,100940.84
2018-05-10T20:54:26.070Z,100945.55
2018-05-10T20:59:17.104Z,100953.47
2018-05-10T21:04:08.163Z,100952.34
2018-05-10T21:08:59.240Z,100950.91
2018-05-10T21:13:50.283Z,100948.31
2018-05-10T21:18:41.298Z,100957.81
2018-05-10T21:23:32.322Z,100976.81
2018-05-10T21:28:23.412Z,100989.30
2018-05-10T21:33:15.160Z,100981.20
2018-05-10T21:38:06.951Z,100991.55
2018-05-10T21:42:59.051Z,101009.87
2018-05-10T21:47:50.129Z,101009.12
2018-05-10T21:52:41.146Z,101016.30
2018-05-10T21:57:32.168Z,101020.45
2018-05-10T22:02:23.193Z,101030.08
2018-05-10T22:07:14.252Z,101036.87
2018-05-10T22:12:06.025Z,101027.91
2018-05-10T22:16:57.058Z,101027.18
2018-05-10T22:21:48.099Z,101022.02
2018-05-10T22:26:39.295Z,101025.31
2018-05-10T22:31:30.333Z,101021.75
2018-05-10T22:36:21.358Z,101017.09
2018-05-10T22:41:12.412Z,101019.56
2018-05-10T22:46:03.442Z,101007.74
2018-05-10T22:50:55.226Z,101012.66
2018-05-10T22:55:46.244Z,101016.09
2018-05-10T23:00:37.285Z,101016.32
2018-05-10T23:05:30.320Z,101015.98
2018-05-10T23:10:22.083Z,101022.67
2018-05-10T23:15:13.122Z,101034.95
2018-05-10T23:20:04.274Z,101042.46
2018-05-10T23:24:55.303Z,101041.27
2018-05-10T23:29:46.321Z,101050.04
2018-05-10T23:34:37.353Z,101064.23
2018-05-10T23:39:28.367Z,101076.91
2018-05-10T23:44:20.896Z,101081.30
2018-05-10T23:49:11.933Z,101078.45
2018-05-10T23:54:02.954Z,101087.20
2018-05-10T23:58:54.032Z,101083.38
